Terminal Aerodrome Forecast
Issued by NWS Shreveport, LA

Home | Current Version | Previous Version | Text Only | Print | Product List | Glossary On
Versions: 1 2 3 4 5 6 7 8 9 10 11 12 13 14 15 16 17 18 19 20
314
FTUS44 KSHV 282352
TAFTXK
TAF
KTXK 282352Z 2900/2924 09004KT P6SM SKC
     FM290800 12006KT P6SM BKN025
     FM291000 12006KT P6SM VCTS OVC025CB
     FM291500 15008KT 5SM -TSRA BR OVC035CB=

USA.gov is the U.S. government's official web portal to all federal, state and local government web resources and services.